Terminal Aerodrome Forecast
Issued by NWS

Home | Current Version | Previous Version | Text Only | Print | Product List | Glossary On
Versions: 1 2 3 4 5 6 7 8 9 10 11 12 13 14 15 16 17
000
FTUS46 KMTR 031743
TAFOAK
TAF
KOAK 031743Z 0318/0424 23008KT P6SM SCT012
     FM032000 26018G25KT P6SM FEW020
     FM040300 26015G20KT P6SM BKN015
     FM040400 25015G20KT P6SM OVC015
     FM041200 25010KT P6SM OVC015
     FM041900 27010KT P6SM SCT015=

USA.gov is the U.S. government's official web portal to all federal, state and local government web resources and services.